WetterOnline ( https://www.wetteronline.de )

Wetter aktuell Regen

Aktuelles Wetter: Zwiesel (613m)

6-stündlich | Neueste Meldungen
Ortszeit Temperatur Wetter
Sa, 01.10. 8:00 6.7° C bewölkt
Sa, 01.10. 2:00 6.0° C bedeckt
Fr, 30.09. 20:00 9.4° C bedeckt
Fr, 30.09. 14:00 11.0° C bedeckt
Fr, 30.09. 8:00 7.1° C bedeckt
Fr, 30.09. 2:00 7.0° C leichter Regen
Do, 29.09. 20:00 7.9° C leichter Regen
Do, 29.09. 14:00 11.7° C wolkig
Ortszeit Temperatur Wetter
Sa, 01.10. 13:30 10.8° C leichter Regen
Sa, 01.10. 13:20 10.8° C leichter Regen
Sa, 01.10. 13:10 11.6° C bewölkt
Sa, 01.10. 13:00 11.1° C leicht bewölkt
Sa, 01.10. 12:50 11.1° C leicht bewölkt
Sa, 01.10. 12:40 11.0° C wolkig
Sa, 01.10. 12:30 10.8° C wolkig
Sa, 01.10. 12:00 10.5° C wolkig
Sa, 01.10. 11:30 10.1° C bewölkt
Sa, 01.10. 11:00 10.0° C bewölkt
Sa, 01.10. 10:30 9.6° C bewölkt
Ortszeit Relative Feuchte Sichtweite
Sa, 01.10. 8:00 97% 19 km
Sa, 01.10. 2:00 99% 22 km
Fr, 30.09. 20:00 93% 45 km
Fr, 30.09. 14:00 73% >70 km
Fr, 30.09. 8:00 95% 35 km
Fr, 30.09. 2:00 92% 23 km
Do, 29.09. 20:00 90% 29 km
Do, 29.09. 14:00 62% >70 km
Ortszeit Relative Feuchte Sichtweite
Sa, 01.10. 13:30 71% 40 km
Sa, 01.10. 13:20 71% -
Sa, 01.10. 13:10 68% -
Sa, 01.10. 13:00 70% 50 km
Sa, 01.10. 12:50 70% -
Sa, 01.10. 12:40 69% -
Sa, 01.10. 12:30 76% 50 km
Sa, 01.10. 12:00 78% 35 km
Sa, 01.10. 11:30 82% 30 km
Sa, 01.10. 11:00 83% 30 km
Sa, 01.10. 10:30 84% 24 km
Ortszeit Niederschlagsmenge Niederschlagsart
Sa, 01.10. 8:00 0.0 l/m2 in 12 Std. -
Sa, 01.10. 2:00 0.0 l/m2 in 6 Std. -
Fr, 30.09. 20:00 0.1 l/m2 in 12 Std. Regen
Fr, 30.09. 14:00 0.1 l/m2 in 6 Std. Regen
Fr, 30.09. 8:00 4 l/m2 in 12 Std. Regen
Fr, 30.09. 2:00 4 l/m2 in 6 Std. Regen
Do, 29.09. 20:00 1 l/m2 in 12 Std. Regen
Do, 29.09. 14:00 0.0 l/m2 in 6 Std. -
Ortszeit Niederschlagsmenge Niederschlagsart
Sa, 01.10. 13:30 <0.05 l/m2 in 1 Std. -
Sa, 01.10. 13:20 keine Meldung -
Sa, 01.10. 13:10 keine Meldung -
Sa, 01.10. 13:00 0.0 l/m2 in 1 Std. -
Sa, 01.10. 12:50 keine Meldung -
Sa, 01.10. 12:40 keine Meldung -
Sa, 01.10. 12:30 0.0 l/m2 in 1 Std. -
Sa, 01.10. 12:00 0.0 l/m2 in 1 Std. -
Sa, 01.10. 11:30 0.0 l/m2 in 1 Std. -
Sa, 01.10. 11:00 0.0 l/m2 in 1 Std. -
Sa, 01.10. 10:30 0.0 l/m2 in 1 Std. -
Ortszeit Stärke Spitze Richtung
km/h Bft. km/h Grad Sektor
Sa, 01.10. 8:00 4 1 7 140° SO
Sa, 01.10. 2:00 4 1 7 60° NO
Fr, 30.09. 20:00 4 1 14 330° NW
Fr, 30.09. 14:00 2 1 9 350° N
Fr, 30.09. 8:00 4 1 11 30° NO
Fr, 30.09. 2:00 4 1 11 20° N
Do, 29.09. 20:00 6 1 13 30° NO
Do, 29.09. 14:00 6 1 11 310° NW
Ortszeit Stärke Spitze Richtung
km/h Bft. km/h Grad Sektor
Sa, 01.10. 13:30 19 3 37 220° SW
Sa, 01.10. 13:20 19 3 - 220° SW
Sa, 01.10. 13:10 17 3 - 220° SW
Sa, 01.10. 13:00 19 3 31 230° SW
Sa, 01.10. 12:50 19 3 - 230° SW
Sa, 01.10. 12:40 14 3 - 230° SW
Sa, 01.10. 12:30 14 3 25 200° S
Sa, 01.10. 12:00 11 2 22 180° S
Sa, 01.10. 11:30 9 2 22 190° S
Sa, 01.10. 11:00 7 2 18 190° S
Sa, 01.10. 10:30 9 2 17 190° S
Ortszeit Untergrenze Bedeckung Gattung
total tief tief mittel hoch
Sa, 01.10. 8:00 420 m 7/8 7/8 - - -
Sa, 01.10. 2:00 <30 m 8/8 0/8 - - -
Fr, 30.09. 20:00 930 m 8/8 8/8 - - -
Fr, 30.09. 14:00 870 m 8/8 8/8 - - -
Fr, 30.09. 8:00 1230 m 8/8 8/8 - - -
Fr, 30.09. 2:00 1050 m 1/8 1/8 - - -
Do, 29.09. 20:00 1050 m 1/8 1/8 - - -
Do, 29.09. 14:00 990 m 8/8 2/8 - - -
Ortszeit Bedeckungsgrad in Achtel und Wolkenuntergrenze
Sa, 01.10. 13:30 6(930m) 8(4200m) 8(5400m)
Sa, 01.10. 13:20 6(930m) 8(4200m) 8(5400m)
Sa, 01.10. 13:10 7
Sa, 01.10. 13:00 1(750m) 4(2700m)
Sa, 01.10. 12:50 1(750m) 4(2700m)
Sa, 01.10. 12:40 5
Sa, 01.10. 12:30 3(3000m) 5(3900m) 5(5400m)
Sa, 01.10. 12:00 1(480m) 8(4200m)
Sa, 01.10. 11:30 5(450m) 6(750m) 7(4500m)
Sa, 01.10. 11:00 5(390m) 6(510m) 7(5100m)
Sa, 01.10. 10:30 3(360m) 7(540m) 7(690m)
Ortszeit Luftdruck NN (hPa) Tendenz (hPa in 3 Std.)
Sa, 01.10. 8:00 1015 - 0,6
Sa, 01.10. 2:00 1016 + 0,9
Fr, 30.09. 20:00 1014 + 1,3
Fr, 30.09. 14:00 1012 + 0,9
Fr, 30.09. 8:00 1011 + 1,5
Fr, 30.09. 2:00 1008 + 0,7
Do, 29.09. 20:00 1006 + 1,3
Do, 29.09. 14:00 1003 - 0,1
Ortszeit Luftdruck NN (hPa) Tendenz (hPa in 3 Std.)
Sa, 01.10. 13:30 1013 - 1,1
Sa, 01.10. 13:20 1013 keine Meldung
Sa, 01.10. 13:10 1013 keine Meldung
Sa, 01.10. 13:00 1013 - 0,9
Sa, 01.10. 12:50 1013 keine Meldung
Sa, 01.10. 12:40 1013 keine Meldung
Sa, 01.10. 12:30 1013 - 0,9
Sa, 01.10. 12:00 1013 - 1,1
Sa, 01.10. 11:30 1014 - 0,6
Sa, 01.10. 11:00 1014 - 0,2
Sa, 01.10. 10:30 1014 + 0,1
Ortszeit Schneehöhe (cm)
Sa, 01.10. 8:00 0
Sa, 01.10. 2:00 0
Fr, 30.09. 20:00 0
Fr, 30.09. 14:00 0
Fr, 30.09. 8:00 0
Fr, 30.09. 2:00 0
Do, 29.09. 20:00 0
Do, 29.09. 14:00 0
Ortszeit Schneehöhe (cm)
Sa, 01.10. 13:30 0
Sa, 01.10. 13:20 0
Sa, 01.10. 13:10 0
Sa, 01.10. 13:00 0
Sa, 01.10. 12:50 0
Sa, 01.10. 12:40 0
Sa, 01.10. 12:30 0
Sa, 01.10. 12:00 0
Sa, 01.10. 11:30 0
Sa, 01.10. 11:00 0
Sa, 01.10. 10:30 0
Link zu dieser Seite / Seite empfehlen

Das Wetter in ...